KGSH/GSH METAR and TAF weather

Enter ICAO airport designator
Station Type Date Time Source
KGSH METAR 2019/02/20 06:53 UTC NOAA

KGSH 200653Z AUTO 10011KT 9SM OVC110 M02/M05 A3030 RMK AO2 SLP272 T10171050


Station Type Date Time Source
KGSH Decoded METAR 2019/02/20 06:53 UTC NOAA

GOSHEN MUNICIPAL AIRPORT, IN, United States (KGSH) 41-32N 85-47W 252M
Feb 20, 2019 - 01:53 AM EST / 2019.02.20 0653 UTC
Wind: from the E (100 degrees) at 13 MPH (11 KT):0
Visibility: 9 mile(s):0
Sky conditions: overcast
Temperature: 28.9 F (-1.7 C)
Windchill: 17 F (-8 C):1
Dew Point: 23.0 F (-5.0 C)
Relative Humidity: 78%
Pressure (altimeter): 30.3 in. Hg (1026 hPa)
ob: KGSH 200653Z AUTO 10011KT 9SM OVC110 M02/M05 A3030 RMK AO2 SLP272 T10171050
cycle: 7

Station Type Date Time Source
KGSH TAF UTC NOAA

Error!


Example: see airport list